sensor_id;sensor_type;location;lat;lon;timestamp;temperature;humidity
2999;DHT22;1509;51.964;7.628;2023-04-01T00:00:55;9.40;99.90
2999;DHT22;1509;51.964;7.628;2023-04-01T00:03:22;9.40;99.90
2999;DHT22;1509;51.964;7.628;2023-04-01T00:05:49;9.40;99.90
2999;DHT22;1509;51.964;7.628;2023-04-01T00:08:15;9.40;99.90
2999;DHT22;1509;51.964;7.628;2023-04-01T00:10:41;9.40;99.90
2999;DHT22;1509;51.964;7.628;2023-04-01T00:13:06;9.40;99.90
2999;DHT22;1509;51.964;7.628;2023-04-01T00:15:35;9.40;99.90
2999;DHT22;1509;51.964;7.628;2023-04-01T00:18:01;9.30;99.90
2999;DHT22;1509;51.964;7.628;2023-04-01T00:20:28;9.30;99.90
2999;DHT22;1509;51.964;7.628;2023-04-01T00:22:53;9.30;99.90
2999;DHT22;1509;51.964;7.628;2023-04-01T00:25:19;9.30;99.90
2999;DHT22;1509;51.964;7.628;2023-04-01T00:27:45;9.30;99.90
2999;DHT22;1509;51.964;7.628;2023-04-01T00:30:11;9.30;99.90
2999;DHT22;1509;51.964;7.628;2023-04-01T00:32:36;9.30;99.90
2999;DHT22;1509;51.964;7.628;2023-04-01T00:35:03;9.30;99.90
2999;DHT22;1509;51.964;7.628;2023-04-01T00:37:29;9.30;99.90
2999;DHT22;1509;51.964;7.628;2023-04-01T00:39:55;9.30;99.90
2999;DHT22;1509;51.964;7.628;2023-04-01T00:42:21;9.30;99.90
2999;DHT22;1509;51.964;7.628;2023-04-01T00:44:54;9.10;99.90
2999;DHT22;1509;51.964;7.628;2023-04-01T00:47:20;9.30;99.90
2999;DHT22;1509;51.964;7.628;2023-04-01T00:49:49;9.30;99.90
2999;DHT22;1509;51.964;7.628;2023-04-01T00:52:19;9.30;99.90
2999;DHT22;1509;51.964;7.628;2023-04-01T00:54:48;9.30;99.90
2999;DHT22;1509;51.964;7.628;2023-04-01T00:57:20;9.40;99.90
2999;DHT22;1509;51.964;7.628;2023-04-01T00:59:49;9.10;99.90
2999;DHT22;1509;51.964;7.628;2023-04-01T01:02:16;9.40;99.90
2999;DHT22;1509;51.964;7.628;2023-04-01T01:04:42;9.40;99.90
2999;DHT22;1509;51.964;7.628;2023-04-01T01:10:02;9.30;99.90
2999;DHT22;1509;51.964;7.628;2023-04-01T01:12:39;9.30;99.90
2999;DHT22;1509;51.964;7.628;2023-04-01T01:15:15;9.30;99.90
2999;DHT22;1509;51.964;7.628;2023-04-01T01:37:46;9.20;99.90
2999;DHT22;1509;51.964;7.628;2023-04-01T01:40:13;9.20;99.90
2999;DHT22;1509;51.964;7.628;2023-04-01T01:42:43;9.20;99.90
2999;DHT22;1509;51.964;7.628;2023-04-01T01:45:13;9.10;99.90
2999;DHT22;1509;51.964;7.628;2023-04-01T01:47:40;9.30;99.90
2999;DHT22;1509;51.964;7.628;2023-04-01T01:50:08;9.20;99.90
2999;DHT22;1509;51.964;7.628;2023-04-01T01:52:34;9.20;99.90
2999;DHT22;1509;51.964;7.628;2023-04-01T01:55:00;9.10;99.90
2999;DHT22;1509;51.964;7.628;2023-04-01T01:57:29;9.10;99.90
2999;DHT22;1509;51.964;7.628;2023-04-01T02:00:02;9.20;99.90
2999;DHT22;1509;51.964;7.628;2023-04-01T02:02:28;9.20;99.90
2999;DHT22;1509;51.964;7.628;2023-04-01T02:04:57;9.10;99.90
2999;DHT22;1509;51.964;7.628;2023-04-01T02:07:28;9.20;99.90
2999;DHT22;1509;51.964;7.628;2023-04-01T02:09:57;9.10;99.90
2999;DHT22;1509;51.964;7.628;2023-04-01T02:12:23;9.10;99.90
2999;DHT22;1509;51.964;7.628;2023-04-01T02:17:29;9.10;99.90
2999;DHT22;1509;51.964;7.628;2023-04-01T02:20:02;9.10;99.90
2999;DHT22;1509;51.964;7.628;2023-04-01T02:22:33;9.10;99.90
2999;DHT22;1509;51.964;7.628;2023-04-01T02:25:07;9.10;99.90
2999;DHT22;1509;51.964;7.628;2023-04-01T02:27:33;9.20;99.90
2999;DHT22;1509;51.964;7.628;2023-04-01T02:29:59;9.10;99.90
2999;DHT22;1509;51.964;7.628;2023-04-01T02:32:25;9.10;99.90
2999;DHT22;1509;51.964;7.628;2023-04-01T02:34:53;9.10;99.90
2999;DHT22;1509;51.964;7.628;2023-04-01T02:37:19;9.20;99.90
2999;DHT22;1509;51.964;7.628;2023-04-01T02:39:45;9.20;99.90
2999;DHT22;1509;51.964;7.628;2023-04-01T02:42:10;9.10;99.90
2999;DHT22;1509;51.964;7.628;2023-04-01T02:44:36;9.30;99.90
2999;DHT22;1509;51.964;7.628;2023-04-01T02:47:02;9.20;99.90
2999;DHT22;1509;51.964;7.628;2023-04-01T02:49:28;9.20;99.90
2999;DHT22;1509;51.964;7.628;2023-04-01T02:51:53;9.10;99.90
2999;DHT22;1509;51.964;7.628;2023-04-01T02:54:19;9.10;99.90
2999;DHT22;1509;51.964;7.628;2023-04-01T02:56:45;9.10;99.90
2999;DHT22;1509;51.964;7.628;2023-04-01T02:59:11;9.10;99.90
2999;DHT22;1509;51.964;7.628;2023-04-01T03:01:37;9.20;99.90
2999;DHT22;1509;51.964;7.628;2023-04-01T03:04:03;8.90;99.90
2999;DHT22;1509;51.964;7.628;2023-04-01T03:06:29;9.00;99.90
2999;DHT22;1509;51.964;7.628;2023-04-01T03:09:04;9.00;99.90
2999;DHT22;1509;51.964;7.628;2023-04-01T03:11:29;9.00;99.90
2999;DHT22;1509;51.964;7.628;2023-04-01T03:13:55;9.00;99.90
2999;DHT22;1509;51.964;7.628;2023-04-01T03:16:21;9.00;99.90
2999;DHT22;1509;51.964;7.628;2023-04-01T03:18:50;9.00;99.90
2999;DHT22;1509;51.964;7.628;2023-04-01T03:21:30;9.00;99.90
2999;DHT22;1509;51.964;7.628;2023-04-01T03:23:56;9.00;99.90
2999;DHT22;1509;51.964;7.628;2023-04-01T03:26:36;9.00;99.90
2999;DHT22;1509;51.964;7.628;2023-04-01T03:29:02;9.00;99.90
2999;DHT22;1509;51.964;7.628;2023-04-01T03:31:27;9.00;99.90
2999;DHT22;1509;51.964;7.628;2023-04-01T03:33:53;8.90;99.90
2999;DHT22;1509;51.964;7.628;2023-04-01T03:36:19;8.90;99.90
2999;DHT22;1509;51.964;7.628;2023-04-01T03:38:48;9.00;99.90
2999;DHT22;1509;51.964;7.628;2023-04-01T03:41:15;9.00;99.90
2999;DHT22;1509;51.964;7.628;2023-04-01T03:43:41;9.00;99.90
2999;DHT22;1509;51.964;7.628;2023-04-01T03:46:07;9.00;99.90
2999;DHT22;1509;51.964;7.628;2023-04-01T03:48:34;9.00;99.90
2999;DHT22;1509;51.964;7.628;2023-04-01T03:51:00;9.00;99.90
2999;DHT22;1509;51.964;7.628;2023-04-01T03:53:26;9.00;99.90
2999;DHT22;1509;51.964;7.628;2023-04-01T03:55:53;9.00;99.90
2999;DHT22;1509;51.964;7.628;2023-04-01T03:58:18;9.00;99.90
2999;DHT22;1509;51.964;7.628;2023-04-01T04:00:44;9.00;99.90
2999;DHT22;1509;51.964;7.628;2023-04-01T04:03:10;8.90;99.90
2999;DHT22;1509;51.964;7.628;2023-04-01T04:05:48;8.90;99.90
2999;DHT22;1509;51.964;7.628;2023-04-01T04:08:13;9.00;99.90
2999;DHT22;1509;51.964;7.628;2023-04-01T04:10:46;8.90;99.90
2999;DHT22;1509;51.964;7.628;2023-04-01T04:13:13;9.00;99.90
2999;DHT22;1509;51.964;7.628;2023-04-01T04:15:41;9.00;99.90
2999;DHT22;1509;51.964;7.628;2023-04-01T04:18:09;8.90;99.90
2999;DHT22;1509;51.964;7.628;2023-04-01T04:20:44;8.90;99.90
2999;DHT22;1509;51.964;7.628;2023-04-01T04:23:14;8.90;99.90
2999;DHT22;1509;51.964;7.628;2023-04-01T04:25:39;8.90;99.90
2999;DHT22;1509;51.964;7.628;2023-04-01T04:28:05;8.90;99.90
2999;DHT22;1509;51.964;7.628;2023-04-01T04:30:31;8.90;99.90
2999;DHT22;1509;51.964;7.628;2023-04-01T04:32:57;8.90;99.90
2999;DHT22;1509;51.964;7.628;2023-04-01T04:35:22;8.80;99.90
2999;DHT22;1509;51.964;7.628;2023-04-01T04:37:48;9.00;99.90
2999;DHT22;1509;51.964;7.628;2023-04-01T04:40:14;8.90;99.90
2999;DHT22;1509;51.964;7.628;2023-04-01T04:42:39;8.90;99.90
2999;DHT22;1509;51.964;7.628;2023-04-01T04:45:05;8.90;99.90
2999;DHT22;1509;51.964;7.628;2023-04-01T04:47:31;8.90;99.90
2999;DHT22;1509;51.964;7.628;2023-04-01T04:49:57;8.90;99.90
2999;DHT22;1509;51.964;7.628;2023-04-01T04:52:23;9.10;99.90
2999;DHT22;1509;51.964;7.628;2023-04-01T04:54:48;8.90;99.90
2999;DHT22;1509;51.964;7.628;2023-04-01T04:57:14;8.90;99.90
2999;DHT22;1509;51.964;7.628;2023-04-01T04:59:40;8.90;99.90
2999;DHT22;1509;51.964;7.628;2023-04-01T05:02:06;8.90;99.90
2999;DHT22;1509;51.964;7.628;2023-04-01T05:04:35;8.70;99.90
2999;DHT22;1509;51.964;7.628;2023-04-01T05:07:01;8.90;99.90
2999;DHT22;1509;51.964;7.628;2023-04-01T05:09:27;8.90;99.90
2999;DHT22;1509;51.964;7.628;2023-04-01T05:11:52;8.80;99.90
2999;DHT22;1509;51.964;7.628;2023-04-01T05:14:18;8.80;99.90
2999;DHT22;1509;51.964;7.628;2023-04-01T05:16:44;8.80;99.90
2999;DHT22;1509;51.964;7.628;2023-04-01T05:19:12;8.90;99.90
2999;DHT22;1509;51.964;7.628;2023-04-01T05:21:47;8.90;99.90
2999;DHT22;1509;51.964;7.628;2023-04-01T05:24:13;8.90;99.90
2999;DHT22;1509;51.964;7.628;2023-04-01T05:26:41;8.90;99.90
2999;DHT22;1509;51.964;7.628;2023-04-01T05:29:10;8.80;99.90
2999;DHT22;1509;51.964;7.628;2023-04-01T05:31:39;8.90;99.90
2999;DHT22;1509;51.964;7.628;2023-04-01T05:34:04;8.90;99.90
2999;DHT22;1509;51.964;7.628;2023-04-01T05:36:30;8.90;99.90
2999;DHT22;1509;51.964;7.628;2023-04-01T05:38:56;8.90;99.90
2999;DHT22;1509;51.964;7.628;2023-04-01T05:41:39;8.90;99.90
2999;DHT22;1509;51.964;7.628;2023-04-01T05:44:06;8.90;99.90
2999;DHT22;1509;51.964;7.628;2023-04-01T05:46:34;9.10;99.90
2999;DHT22;1509;51.964;7.628;2023-04-01T05:49:02;9.00;99.90
2999;DHT22;1509;51.964;7.628;2023-04-01T05:51:35;9.00;99.90
2999;DHT22;1509;51.964;7.628;2023-04-01T05:54:01;9.00;99.90
2999;DHT22;1509;51.964;7.628;2023-04-01T05:56:27;9.00;99.90
2999;DHT22;1509;51.964;7.628;2023-04-01T05:58:53;8.80;99.90
2999;DHT22;1509;51.964;7.628;2023-04-01T06:01:27;9.10;99.90
2999;DHT22;1509;51.964;7.628;2023-04-01T06:03:52;9.00;99.90
2999;DHT22;1509;51.964;7.628;2023-04-01T06:06:28;9.00;99.90
2999;DHT22;1509;51.964;7.628;2023-04-01T06:08:56;9.00;99.90
2999;DHT22;1509;51.964;7.628;2023-04-01T06:11:44;9.10;99.90
2999;DHT22;1509;51.964;7.628;2023-04-01T06:34:03;9.20;99.90
2999;DHT22;1509;51.964;7.628;2023-04-01T06:48:09;9.30;99.90
2999;DHT22;1509;51.964;7.628;2023-04-01T06:55:55;9.40;99.90
2999;DHT22;1509;51.964;7.628;2023-04-01T06:58:49;9.40;99.90
2999;DHT22;1509;51.964;7.628;2023-04-01T07:01:27;9.60;99.90
2999;DHT22;1509;51.964;7.628;2023-04-01T07:04:06;9.40;99.90
2999;DHT22;1509;51.964;7.628;2023-04-01T07:09:31;9.50;99.90
2999;DHT22;1509;51.964;7.628;2023-04-01T07:12:11;9.60;99.90
2999;DHT22;1509;51.964;7.628;2023-04-01T07:14:41;9.60;99.90
2999;DHT22;1509;51.964;7.628;2023-04-01T07:17:27;9.60;99.90
2999;DHT22;1509;51.964;7.628;2023-04-01T07:20:22;9.60;99.90
2999;DHT22;1509;51.964;7.628;2023-04-01T07:22:56;9.60;99.90
2999;DHT22;1509;51.964;7.628;2023-04-01T07:25:35;9.60;99.90
2999;DHT22;1509;51.964;7.628;2023-04-01T07:28:10;9.70;99.90
2999;DHT22;1509;51.964;7.628;2023-04-01T07:30:49;9.70;99.90
2999;DHT22;1509;51.964;7.628;2023-04-01T07:36:22;9.60;99.90
2999;DHT22;1509;51.964;7.628;2023-04-01T07:42:24;9.60;99.90
2999;DHT22;1509;51.964;7.628;2023-04-01T07:45:09;9.60;99.90
2999;DHT22;1509;51.964;7.628;2023-04-01T07:50:57;9.60;99.90
2999;DHT22;1509;51.964;7.628;2023-04-01T07:53:26;9.60;99.90
2999;DHT22;1509;51.964;7.628;2023-04-01T07:56:44;9.50;99.90
2999;DHT22;1509;51.964;7.628;2023-04-01T08:02:25;9.60;99.90
2999;DHT22;1509;51.964;7.628;2023-04-01T08:08:02;9.70;99.90
2999;DHT22;1509;51.964;7.628;2023-04-01T08:13:43;9.70;99.90
2999;DHT22;1509;51.964;7.628;2023-04-01T08:21:48;9.70;99.90
2999;DHT22;1509;51.964;7.628;2023-04-01T08:29:58;9.80;99.90
2999;DHT22;1509;51.964;7.628;2023-04-01T08:32:39;9.90;99.90
2999;DHT22;1509;51.964;7.628;2023-04-01T08:35:26;9.80;99.90
2999;DHT22;1509;51.964;7.628;2023-04-01T08:37:59;9.90;99.90
2999;DHT22;1509;51.964;7.628;2023-04-01T08:49:25;9.90;99.90
2999;DHT22;1509;51.964;7.628;2023-04-01T08:52:07;9.90;99.90
2999;DHT22;1509;51.964;7.628;2023-04-01T08:59:57;10.10;99.90
2999;DHT22;1509;51.964;7.628;2023-04-01T09:02:51;10.20;99.90
2999;DHT22;1509;51.964;7.628;2023-04-01T09:13:46;10.20;99.90
2999;DHT22;1509;51.964;7.628;2023-04-01T09:18:58;10.20;99.90
2999;DHT22;1509;51.964;7.628;2023-04-01T09:27:29;10.20;99.90
2999;DHT22;1509;51.964;7.628;2023-04-01T09:38:56;10.20;99.90
2999;DHT22;1509;51.964;7.628;2023-04-01T09:41:35;10.40;99.90
2999;DHT22;1509;51.964;7.628;2023-04-01T09:50:14;10.40;99.90
2999;DHT22;1509;51.964;7.628;2023-04-01T09:53:19;10.40;99.90
2999;DHT22;1509;51.964;7.628;2023-04-01T09:56:13;10.30;99.90
2999;DHT22;1509;51.964;7.628;2023-04-01T10:04:54;10.60;99.90
2999;DHT22;1509;51.964;7.628;2023-04-01T10:10:58;10.50;99.90
2999;DHT22;1509;51.964;7.628;2023-04-01T10:16:46;10.80;99.90
2999;DHT22;1509;51.964;7.628;2023-04-01T10:22:37;10.70;99.90
2999;DHT22;1509;51.964;7.628;2023-04-01T10:40:12;10.80;99.90
2999;DHT22;1509;51.964;7.628;2023-04-01T10:46:30;10.90;99.90
2999;DHT22;1509;51.964;7.628;2023-04-01T10:56:42;11.30;99.90
2999;DHT22;1509;51.964;7.628;2023-04-01T11:22:51;11.40;99.90
2999;DHT22;1509;51.964;7.628;2023-04-01T11:45:35;11.30;99.90
2999;DHT22;1509;51.964;7.628;2023-04-01T11:48:32;11.30;99.90
2999;DHT22;1509;51.964;7.628;2023-04-01T11:57:04;10.90;99.90
2999;DHT22;1509;51.964;7.628;2023-04-01T11:59:56;11.20;99.90
2999;DHT22;1509;51.964;7.628;2023-04-01T12:02:42;11.20;99.90
2999;DHT22;1509;51.964;7.628;2023-04-01T12:10:55;11.20;99.90
2999;DHT22;1509;51.964;7.628;2023-04-01T12:16:07;11.10;99.90
2999;DHT22;1509;51.964;7.628;2023-04-01T12:21:58;10.80;99.90
2999;DHT22;1509;51.964;7.628;2023-04-01T12:25:04;11.00;99.90
2999;DHT22;1509;51.964;7.628;2023-04-01T12:27:37;11.00;99.90
2999;DHT22;1509;51.964;7.628;2023-04-01T12:36:23;11.10;99.90
2999;DHT22;1509;51.964;7.628;2023-04-01T12:38:56;11.10;99.90
2999;DHT22;1509;51.964;7.628;2023-04-01T12:41:32;10.90;99.90
2999;DHT22;1509;51.964;7.628;2023-04-01T13:03:20;11.00;99.90
2999;DHT22;1509;51.964;7.628;2023-04-01T13:09:19;11.00;99.90
2999;DHT22;1509;51.964;7.628;2023-04-01T13:11:51;11.00;99.90
2999;DHT22;1509;51.964;7.628;2023-04-01T13:14:41;11.00;99.90
2999;DHT22;1509;51.964;7.628;2023-04-01T13:17:47;11.00;99.90
2999;DHT22;1509;51.964;7.628;2023-04-01T13:31:53;11.00;99.90
2999;DHT22;1509;51.964;7.628;2023-04-01T13:38:08;10.90;99.90
2999;DHT22;1509;51.964;7.628;2023-04-01T13:43:42;10.80;99.90
2999;DHT22;1509;51.964;7.628;2023-04-01T13:46:35;10.90;99.90
2999;DHT22;1509;51.964;7.628;2023-04-01T13:49:20;11.00;99.90
2999;DHT22;1509;51.964;7.628;2023-04-01T13:55:18;11.20;99.90
2999;DHT22;1509;51.964;7.628;2023-04-01T14:01:03;11.20;99.90
2999;DHT22;1509;51.964;7.628;2023-04-01T14:12:24;11.10;99.90
2999;DHT22;1509;51.964;7.628;2023-04-01T14:29:47;11.70;99.90
2999;DHT22;1509;51.964;7.628;2023-04-01T14:40:40;12.00;99.90
2999;DHT22;1509;51.964;7.628;2023-04-01T14:56:50;12.30;99.90
2999;DHT22;1509;51.964;7.628;2023-04-01T14:59:27;12.20;99.90
2999;DHT22;1509;51.964;7.628;2023-04-01T15:04:53;12.40;99.90
2999;DHT22;1509;51.964;7.628;2023-04-01T15:10:32;12.50;99.90
2999;DHT22;1509;51.964;7.628;2023-04-01T15:27:00;12.60;99.90
2999;DHT22;1509;51.964;7.628;2023-04-01T15:29:52;12.50;99.90
2999;DHT22;1509;51.964;7.628;2023-04-01T15:38:52;12.30;99.90
2999;DHT22;1509;51.964;7.628;2023-04-01T15:41:35;12.30;99.90
2999;DHT22;1509;51.964;7.628;2023-04-01T15:53:14;12.30;99.90
2999;DHT22;1509;51.964;7.628;2023-04-01T15:56:14;12.20;99.90
2999;DHT22;1509;51.964;7.628;2023-04-01T15:58:56;12.10;99.90
2999;DHT22;1509;51.964;7.628;2023-04-01T16:01:43;12.20;99.90
2999;DHT22;1509;51.964;7.628;2023-04-01T16:04:54;11.90;99.90
2999;DHT22;1509;51.964;7.628;2023-04-01T16:07:42;11.90;99.90
2999;DHT22;1509;51.964;7.628;2023-04-01T16:30:38;11.40;99.90
2999;DHT22;1509;51.964;7.628;2023-04-01T16:36:09;11.80;99.90
2999;DHT22;1509;51.964;7.628;2023-04-01T16:41:46;11.70;99.90
2999;DHT22;1509;51.964;7.628;2023-04-01T16:44:26;11.60;99.90
2999;DHT22;1509;51.964;7.628;2023-04-01T16:46:56;11.60;99.90
2999;DHT22;1509;51.964;7.628;2023-04-01T16:55:52;11.30;99.90
2999;DHT22;1509;51.964;7.628;2023-04-01T16:58:28;11.30;99.90
2999;DHT22;1509;51.964;7.628;2023-04-01T17:01:29;11.20;99.90
2999;DHT22;1509;51.964;7.628;2023-04-01T17:04:00;11.20;99.90
2999;DHT22;1509;51.964;7.628;2023-04-01T17:06:59;11.10;99.90
2999;DHT22;1509;51.964;7.628;2023-04-01T17:18:06;11.00;99.90
2999;DHT22;1509;51.964;7.628;2023-04-01T17:20:43;10.70;99.90
2999;DHT22;1509;51.964;7.628;2023-04-01T17:23:38;10.70;99.90
2999;DHT22;1509;51.964;7.628;2023-04-01T17:26:42;10.70;99.90
2999;DHT22;1509;51.964;7.628;2023-04-01T17:29:33;10.90;99.90
2999;DHT22;1509;51.964;7.628;2023-04-01T17:42:19;10.30;99.90
2999;DHT22;1509;51.964;7.628;2023-04-01T17:44:57;10.30;99.90
2999;DHT22;1509;51.964;7.628;2023-04-01T17:47:44;10.30;99.90
2999;DHT22;1509;51.964;7.628;2023-04-01T17:51:11;10.20;99.90
2999;DHT22;1509;51.964;7.628;2023-04-01T17:56:40;10.10;99.90
2999;DHT22;1509;51.964;7.628;2023-04-01T17:59:44;10.00;99.90
2999;DHT22;1509;51.964;7.628;2023-04-01T18:02:42;10.00;99.90
2999;DHT22;1509;51.964;7.628;2023-04-01T18:05:30;9.90;99.90
2999;DHT22;1509;51.964;7.628;2023-04-01T18:08:13;9.90;99.90
2999;DHT22;1509;51.964;7.628;2023-04-01T18:11:23;9.80;99.90
2999;DHT22;1509;51.964;7.628;2023-04-01T18:19:49;9.80;99.90
2999;DHT22;1509;51.964;7.628;2023-04-01T18:22:41;9.80;99.90
2999;DHT22;1509;51.964;7.628;2023-04-01T18:25:36;9.80;99.90
2999;DHT22;1509;51.964;7.628;2023-04-01T18:28:22;9.70;99.90
2999;DHT22;1509;51.964;7.628;2023-04-01T18:33:45;9.60;99.90
2999;DHT22;1509;51.964;7.628;2023-04-01T18:36:39;9.10;99.90
2999;DHT22;1509;51.964;7.628;2023-04-01T18:44:46;9.30;99.90
2999;DHT22;1509;51.964;7.628;2023-04-01T18:47:43;9.30;99.90
2999;DHT22;1509;51.964;7.628;2023-04-01T18:50:36;9.20;99.90
2999;DHT22;1509;51.964;7.628;2023-04-01T18:56:05;9.20;99.90
2999;DHT22;1509;51.964;7.628;2023-04-01T18:58:43;9.30;99.90
2999;DHT22;1509;51.964;7.628;2023-04-01T19:07:47;9.30;99.90
2999;DHT22;1509;51.964;7.628;2023-04-01T19:13:09;9.10;99.90
2999;DHT22;1509;51.964;7.628;2023-04-01T19:21:58;9.00;99.90
2999;DHT22;1509;51.964;7.628;2023-04-01T19:27:27;8.90;99.90
2999;DHT22;1509;51.964;7.628;2023-04-01T19:38:04;8.70;99.90
2999;DHT22;1509;51.964;7.628;2023-04-01T19:40:43;8.80;99.90
2999;DHT22;1509;51.964;7.628;2023-04-01T19:46:10;8.70;99.90
2999;DHT22;1509;51.964;7.628;2023-04-01T19:51:24;8.60;99.90
2999;DHT22;1509;51.964;7.628;2023-04-01T19:57:05;8.60;99.90
2999;DHT22;1509;51.964;7.628;2023-04-01T20:02:35;8.60;99.90
2999;DHT22;1509;51.964;7.628;2023-04-01T20:11:19;8.60;99.90
2999;DHT22;1509;51.964;7.628;2023-04-01T20:19:28;8.40;99.90
2999;DHT22;1509;51.964;7.628;2023-04-01T20:22:07;8.40;99.90
2999;DHT22;1509;51.964;7.628;2023-04-01T20:24:42;8.50;99.90
2999;DHT22;1509;51.964;7.628;2023-04-01T20:27:21;8.30;99.90
2999;DHT22;1509;51.964;7.628;2023-04-01T20:47:45;8.10;99.90
2999;DHT22;1509;51.964;7.628;2023-04-01T20:58:05;8.20;99.90
2999;DHT22;1509;51.964;7.628;2023-04-01T21:01:04;8.10;99.90
2999;DHT22;1509;51.964;7.628;2023-04-01T21:10:03;8.00;99.90
2999;DHT22;1509;51.964;7.628;2023-04-01T21:20:49;8.00;99.90
2999;DHT22;1509;51.964;7.628;2023-04-01T21:26:21;7.90;99.90
2999;DHT22;1509;51.964;7.628;2023-04-01T21:29:08;7.90;99.90
2999;DHT22;1509;51.964;7.628;2023-04-01T21:32:10;7.80;99.90
2999;DHT22;1509;51.964;7.628;2023-04-01T21:40:30;7.60;99.90
2999;DHT22;1509;51.964;7.628;2023-04-01T21:45:35;7.40;99.90
2999;DHT22;1509;51.964;7.628;2023-04-01T22:02:20;7.60;99.90
2999;DHT22;1509;51.964;7.628;2023-04-01T22:10:44;7.40;99.90
2999;DHT22;1509;51.964;7.628;2023-04-01T22:18:29;7.40;99.90
2999;DHT22;1509;51.964;7.628;2023-04-01T22:21:00;7.60;99.90
2999;DHT22;1509;51.964;7.628;2023-04-01T22:26:47;7.30;99.90
2999;DHT22;1509;51.964;7.628;2023-04-01T22:29:23;7.30;99.90
2999;DHT22;1509;51.964;7.628;2023-04-01T22:42:44;7.30;99.90
2999;DHT22;1509;51.964;7.628;2023-04-01T22:50:24;7.30;99.90
2999;DHT22;1509;51.964;7.628;2023-04-01T22:55:31;7.20;99.90
2999;DHT22;1509;51.964;7.628;2023-04-01T22:58:09;7.10;99.90
2999;DHT22;1509;51.964;7.628;2023-04-01T23:00:47;7.20;99.90
2999;DHT22;1509;51.964;7.628;2023-04-01T23:03:21;7.20;99.90
2999;DHT22;1509;51.964;7.628;2023-04-01T23:05:51;7.10;99.90
2999;DHT22;1509;51.964;7.628;2023-04-01T23:11:15;7.00;99.90
2999;DHT22;1509;51.964;7.628;2023-04-01T23:17:10;6.90;99.90
2999;DHT22;1509;51.964;7.628;2023-04-01T23:22:23;6.90;99.90
2999;DHT22;1509;51.964;7.628;2023-04-01T23:27:45;6.70;99.90
2999;DHT22;1509;51.964;7.628;2023-04-01T23:33:23;6.60;99.90
2999;DHT22;1509;51.964;7.628;2023-04-01T23:36:00;6.70;99.90
2999;DHT22;1509;51.964;7.628;2023-04-01T23:38:36;6.60;99.90
2999;DHT22;1509;51.964;7.628;2023-04-01T23:41:06;6.60;99.90
2999;DHT22;1509;51.964;7.628;2023-04-01T23:43:39;6.50;99.90
2999;DHT22;1509;51.964;7.628;2023-04-01T23:46:07;6.50;99.90
2999;DHT22;1509;51.964;7.628;2023-04-01T23:48:38;6.60;99.90
2999;DHT22;1509;51.964;7.628;2023-04-01T23:54:17;6.60;99.90
2999;DHT22;1509;51.964;7.628;2023-04-01T23:56:51;6.40;99.90
2999;DHT22;1509;51.964;7.628;2023-04-01T23:59:32;6.60;99.90
